CheckWX is a tool to help pilots better visualize weather data.  It is not intended as a substitute for an official pre-flight weather briefing.

16:11:37 UTC

CYCX METAR
CFB Gagetown Heliport
Gagetown, Canada
Current

23 mins ago

CYCX 181549Z AUTO 27010G15KT 9SM OVC016 06/03 A2942
Observed
Oct-18 @ 15:49 UTC
Wind
  • 270° at 10 KTS
  • Gusting to 15 KTS
Visibility
9 SM
Flight Rules
MVFR
Cloud Levels
  • Overcast at 1,600' AGL
Temperature
C / 43°F
Dewpoint
C / 37°F
Humidity
81%
Altimeter
29.42" Hg
Pressure
996.32 hPa
Previous

1 hour ago

CYCX 181500Z AUTO 28009KT 9SM OVC014 OVC088 06/03 A2941 RMK SLP961
Observed
Oct-18 @ 15:00 UTC
Wind
  • 280° at 9 KTS
Visibility
9 SM
Flight Rules
MVFR
Cloud Levels
  • Overcast at 1,400' AGL
  • Overcast at 8,800' AGL
Temperature
C / 43°F
Dewpoint
C / 37°F
Humidity
81%
Altimeter
29.41" Hg
Pressure
995.92 hPa
Previous

2 hours ago

CYCX 181400Z AUTO 27013KT 9SM OVC010 OVC088 06/04 A2939 RMK SLP953
Observed
Oct-18 @ 14:00 UTC
Wind
  • 270° at 13 KTS
Visibility
9 SM
Flight Rules
MVFR
Cloud Levels
  • Overcast at 1,000' AGL
  • Overcast at 8,800' AGL
Temperature
C / 43°F
Dewpoint
C / 39°F
Humidity
87%
Altimeter
29.39" Hg
Pressure
995.22 hPa